createdAt,value
2022-08-18T00:00:43.038Z,20.53
2022-08-18T00:01:43.099Z,20.53
2022-08-18T00:02:43.571Z,20.53
2022-08-18T00:03:56.294Z,20.53
2022-08-18T00:04:48.841Z,20.53
2022-08-18T00:05:43.966Z,20.51
2022-08-18T00:06:42.959Z,20.53
2022-08-18T00:07:47.143Z,20.54
2022-08-18T00:08:42.914Z,20.54
2022-08-18T00:09:42.919Z,20.53
2022-08-18T00:10:42.918Z,20.53
2022-08-18T00:11:42.879Z,20.53
2022-08-18T00:12:42.864Z,20.51
2022-08-18T00:13:42.864Z,20.51
2022-08-18T00:14:42.850Z,20.50
2022-08-18T00:15:49.019Z,20.48
2022-08-18T00:16:43.805Z,20.48
2022-08-18T00:17:42.817Z,20.42
2022-08-18T00:18:42.799Z,20.41
2022-08-18T00:19:46.515Z,20.42
2022-08-18T00:20:43.773Z,20.42
2022-08-18T00:21:42.745Z,20.41
2022-08-18T00:22:42.759Z,20.40
2022-08-18T00:23:42.748Z,20.40
2022-08-18T00:24:47.842Z,20.38
2022-08-18T00:25:43.692Z,20.37
2022-08-18T00:26:42.698Z,20.37
2022-08-18T00:27:42.676Z,20.35
2022-08-18T00:28:42.654Z,20.34
2022-08-18T00:29:42.646Z,20.31
2022-08-18T00:30:42.644Z,20.27
2022-08-18T00:31:42.612Z,20.27
2022-08-18T00:32:42.604Z,20.26
2022-08-18T00:33:42.609Z,20.26
2022-08-18T00:34:42.588Z,20.26
2022-08-18T00:35:42.598Z,20.26
2022-08-18T00:36:42.549Z,20.26
2022-08-18T00:37:42.569Z,20.27
2022-08-18T00:38:42.524Z,20.26
2022-08-18T00:39:46.464Z,20.25
2022-08-18T00:40:43.517Z,20.23
2022-08-18T00:41:42.497Z,20.22
2022-08-18T00:42:42.483Z,20.23
2022-08-18T00:43:42.492Z,20.20
2022-08-18T00:44:42.461Z,20.20
2022-08-18T00:45:42.458Z,20.22
2022-08-18T00:46:42.424Z,20.20
2022-08-18T00:47:43.396Z,20.20
2022-08-18T00:48:48.303Z,20.19
2022-08-18T00:49:43.383Z,20.17
2022-08-18T00:50:42.372Z,20.16
2022-08-18T00:51:42.361Z,20.15
2022-08-18T00:52:42.354Z,20.15
2022-08-18T00:53:42.346Z,20.12
2022-08-18T00:54:42.314Z,20.10
2022-08-18T00:55:44.338Z,20.10
2022-08-18T00:56:43.283Z,20.10
2022-08-18T00:57:42.311Z,20.05
2022-08-18T00:58:42.287Z,20.08
2022-08-18T00:59:42.275Z,20.07
2022-08-18T01:00:42.300Z,20.05
2022-08-18T01:01:42.243Z,20.04
2022-08-18T01:02:42.236Z,20.04
2022-08-18T01:03:42.212Z,20.02
2022-08-18T01:04:42.402Z,20.02
2022-08-18T01:05:42.191Z,19.98
2022-08-18T01:06:42.171Z,20.00
2022-08-18T01:07:42.176Z,19.97
2022-08-18T01:08:42.169Z,19.95
2022-08-18T01:09:42.145Z,19.92
2022-08-18T01:10:42.133Z,19.92
2022-08-18T01:11:42.121Z,19.90
2022-08-18T01:12:45.695Z,19.94
2022-08-18T01:13:42.096Z,19.92
2022-08-18T01:14:42.063Z,19.89
2022-08-18T01:15:42.062Z,19.86
2022-08-18T01:16:57.044Z,19.87
2022-08-18T01:17:43.053Z,19.85
2022-08-18T01:18:42.025Z,19.85
2022-08-18T01:19:42.027Z,19.83
2022-08-18T01:20:41.997Z,19.82
2022-08-18T01:21:41.974Z,19.80
2022-08-18T01:22:41.985Z,19.78
2022-08-18T01:23:41.984Z,19.79
2022-08-18T01:24:41.941Z,19.78
2022-08-18T01:26:44.139Z,19.76
2022-08-18T01:27:39.638Z,19.72
2022-08-18T01:28:38.669Z,19.72
2022-08-18T01:29:42.952Z,19.71
2022-08-18T01:30:39.611Z,19.72
2022-08-18T01:31:38.603Z,19.72
2022-08-18T01:32:38.612Z,19.72
2022-08-18T01:33:38.598Z,19.71
2022-08-18T01:34:38.587Z,19.70
2022-08-18T01:35:41.870Z,19.68
2022-08-18T01:36:38.591Z,19.68
2022-08-18T01:37:38.536Z,19.70
2022-08-18T01:38:38.790Z,19.68
2022-08-18T01:41:21.322Z,19.68
2022-08-18T01:41:24.228Z,19.68
2022-08-18T01:41:39.565Z,19.65
2022-08-18T01:42:38.476Z,19.65
2022-08-18T01:43:38.483Z,19.65
2022-08-18T01:44:38.449Z,19.64
2022-08-18T01:45:38.426Z,19.62
2022-08-18T01:46:38.459Z,19.64
2022-08-18T01:47:47.175Z,19.61
2022-08-18T01:48:39.417Z,19.62
2022-08-18T01:49:38.384Z,19.62
2022-08-18T01:50:38.382Z,19.61
2022-08-18T01:51:40.687Z,19.61
2022-08-18T01:52:38.391Z,19.62
2022-08-18T01:53:38.359Z,19.64
2022-08-18T01:54:38.332Z,19.64
2022-08-18T01:55:38.307Z,19.64
2022-08-18T01:56:38.300Z,19.64
2022-08-18T01:57:38.291Z,19.64
2022-08-18T01:58:38.278Z,19.62
2022-08-18T01:59:38.269Z,19.60
2022-08-18T02:00:38.252Z,19.60
2022-08-18T02:01:38.256Z,19.60
2022-08-18T02:02:39.239Z,19.61
2022-08-18T02:03:38.232Z,19.62
2022-08-18T02:04:38.191Z,19.62
2022-08-18T02:05:38.177Z,19.61
2022-08-18T02:06:38.260Z,19.61
2022-08-18T02:07:38.166Z,19.57
2022-08-18T02:08:38.184Z,19.57
2022-08-18T02:09:38.133Z,19.53
2022-08-18T02:10:38.121Z,19.47
2022-08-18T02:11:38.111Z,19.46
2022-08-18T02:12:38.088Z,19.47
2022-08-18T02:13:38.090Z,19.49
2022-08-18T02:14:38.085Z,19.47
2022-08-18T02:15:38.064Z,19.46
2022-08-18T02:16:38.051Z,19.45
2022-08-18T02:17:38.028Z,19.42
2022-08-18T02:18:47.824Z,19.38
2022-08-18T02:19:39.015Z,19.38
2022-08-18T02:20:38.029Z,19.34
2022-08-18T02:21:37.990Z,19.34
2022-08-18T02:22:37.966Z,19.34
2022-08-18T02:23:37.976Z,19.34
2022-08-18T02:24:37.981Z,19.35
2022-08-18T02:25:37.940Z,19.39
2022-08-18T02:26:37.928Z,19.39
2022-08-18T02:27:37.931Z,19.39
2022-08-18T02:28:37.919Z,19.39
2022-08-18T02:29:37.869Z,19.40
2022-08-18T02:30:37.884Z,19.39
2022-08-18T02:31:37.846Z,19.42
2022-08-18T02:32:37.889Z,19.39
2022-08-18T02:33:37.849Z,19.39
2022-08-18T02:34:37.839Z,19.39
2022-08-18T02:35:37.796Z,19.35
2022-08-18T02:36:37.788Z,19.34
2022-08-18T02:37:37.773Z,19.34
2022-08-18T02:38:37.787Z,19.34
2022-08-18T02:39:37.777Z,19.34
2022-08-18T02:40:37.734Z,19.32
2022-08-18T02:41:37.744Z,19.35
2022-08-18T02:42:37.731Z,19.34
2022-08-18T02:43:37.942Z,19.32
2022-08-18T02:44:37.699Z,19.30
2022-08-18T02:45:37.671Z,19.28
2022-08-18T02:46:37.678Z,19.27
2022-08-18T02:47:37.669Z,19.25
2022-08-18T02:48:37.645Z,19.24
2022-08-18T02:49:37.657Z,19.23
2022-08-18T02:50:37.627Z,19.21
2022-08-18T02:51:37.597Z,19.21
2022-08-18T02:52:37.621Z,19.17
2022-08-18T02:53:37.580Z,19.16
2022-08-18T02:54:37.580Z,19.16
2022-08-18T02:55:37.589Z,19.13
2022-08-18T02:56:41.141Z,19.13
2022-08-18T02:57:37.530Z,19.13
2022-08-18T02:58:37.520Z,19.13
2022-08-18T02:59:37.519Z,19.10
2022-08-18T03:00:37.568Z,19.07
2022-08-18T03:01:37.532Z,19.07
2022-08-18T03:02:37.465Z,19.06
2022-08-18T03:03:37.441Z,19.02
2022-08-18T03:04:37.531Z,19.01
2022-08-18T03:05:37.429Z,19.02
2022-08-18T03:06:37.427Z,19.05
2022-08-18T03:07:37.405Z,19.07
2022-08-18T03:08:37.379Z,19.07
2022-08-18T03:09:37.384Z,19.09
2022-08-18T03:10:37.386Z,19.09
2022-08-18T03:11:37.361Z,19.09
2022-08-18T03:12:37.340Z,19.07
2022-08-18T03:13:37.351Z,19.09
2022-08-18T03:14:37.333Z,19.07
2022-08-18T03:15:37.298Z,19.09
2022-08-18T03:16:37.318Z,19.07
2022-08-18T03:17:37.274Z,19.06
2022-08-18T03:18:37.272Z,19.05
2022-08-18T03:19:37.267Z,19.05
2022-08-18T03:20:37.229Z,19.05
2022-08-18T03:21:37.227Z,19.06
2022-08-18T03:22:37.202Z,19.09
2022-08-18T03:23:37.196Z,19.10
2022-08-18T03:24:37.190Z,19.10
2022-08-18T03:25:37.155Z,19.10
2022-08-18T03:26:37.160Z,19.10
2022-08-18T03:27:37.145Z,19.09
2022-08-18T03:28:37.124Z,19.10
2022-08-18T03:29:37.157Z,19.09
2022-08-18T03:30:37.104Z,19.10
2022-08-18T03:31:37.083Z,19.10
2022-08-18T03:32:37.088Z,19.10
2022-08-18T03:33:37.067Z,19.12
2022-08-18T03:34:37.075Z,19.15
2022-08-18T03:35:37.062Z,19.13
2022-08-18T03:36:37.048Z,19.17
2022-08-18T03:37:37.017Z,19.16
2022-08-18T03:38:37.005Z,19.12
2022-08-18T03:39:37.029Z,19.12
2022-08-18T03:40:37.003Z,19.13
2022-08-18T03:41:44.409Z,19.15
2022-08-18T03:42:37.946Z,19.13
2022-08-18T03:43:50.694Z,19.09
2022-08-18T03:44:37.934Z,19.09
2022-08-18T03:45:36.916Z,19.10
2022-08-18T03:46:36.923Z,19.10
2022-08-18T03:47:36.886Z,19.12
2022-08-18T03:48:36.892Z,19.12
2022-08-18T03:49:36.888Z,19.12
2022-08-18T03:50:36.855Z,19.13
2022-08-18T03:51:36.848Z,19.12
2022-08-18T03:52:36.853Z,19.12
2022-08-18T03:53:36.802Z,19.10
2022-08-18T03:54:36.790Z,19.10
2022-08-18T03:55:36.791Z,19.13
2022-08-18T03:56:36.796Z,19.13
2022-08-18T03:57:38.933Z,19.15
2022-08-18T03:58:36.746Z,19.13
2022-08-18T03:59:36.743Z,19.13
2022-08-18T04:00:36.742Z,19.13
2022-08-18T04:01:36.820Z,19.15
2022-08-18T04:02:36.695Z,19.13
2022-08-18T04:03:36.684Z,19.15
2022-08-18T04:04:36.662Z,19.13
2022-08-18T04:05:36.665Z,19.12
2022-08-18T04:06:36.648Z,19.12
2022-08-18T04:07:36.620Z,19.12
2022-08-18T04:08:36.608Z,19.12
2022-08-18T04:09:36.625Z,19.13
2022-08-18T04:10:36.603Z,19.15
2022-08-18T04:11:37.227Z,19.15
2022-08-18T04:12:36.574Z,19.17
2022-08-18T04:13:36.542Z,19.21
2022-08-18T04:14:36.563Z,19.23
2022-08-18T04:15:36.543Z,19.25
2022-08-18T04:16:36.516Z,19.27
2022-08-18T04:17:36.490Z,19.30
2022-08-18T04:18:37.486Z,19.30
2022-08-18T04:19:36.489Z,19.31
2022-08-18T04:20:36.494Z,19.32
2022-08-18T04:21:36.464Z,19.34
2022-08-18T04:22:36.435Z,19.35
2022-08-18T04:23:43.798Z,19.34
2022-08-18T04:24:37.442Z,19.39
2022-08-18T04:25:36.410Z,19.40
2022-08-18T04:26:36.432Z,19.40
2022-08-18T04:27:36.384Z,19.39
2022-08-18T04:28:36.384Z,19.38
2022-08-18T04:29:36.339Z,19.35
2022-08-18T04:30:36.341Z,19.32
2022-08-18T04:31:36.329Z,19.31
2022-08-18T04:32:36.317Z,19.31
2022-08-18T04:33:36.304Z,19.30
2022-08-18T04:34:36.285Z,19.30
2022-08-18T04:35:36.302Z,19.30
2022-08-18T04:36:36.258Z,19.31
2022-08-18T04:37:38.118Z,19.32
2022-08-18T04:38:36.221Z,19.34
2022-08-18T04:39:36.268Z,19.35
2022-08-18T04:40:36.237Z,19.38
2022-08-18T04:41:36.197Z,19.38
2022-08-18T04:42:36.181Z,19.38
2022-08-18T04:43:37.186Z,19.38
2022-08-18T04:44:36.173Z,19.39
2022-08-18T04:45:36.140Z,19.40
2022-08-18T04:46:36.142Z,19.35
2022-08-18T04:47:36.147Z,19.35
2022-08-18T04:48:36.110Z,19.38
2022-08-18T04:49:36.079Z,19.38
2022-08-18T04:50:36.106Z,19.35
2022-08-18T04:52:22.633Z,19.39
2022-08-18T04:52:41.195Z,19.38
2022-08-18T04:53:36.039Z,19.35
2022-08-18T04:54:36.018Z,19.38
2022-08-18T04:55:36.040Z,19.38
2022-08-18T04:56:35.994Z,19.38
2022-08-18T04:57:35.980Z,19.39
2022-08-18T04:58:35.966Z,19.40
2022-08-18T04:59:35.971Z,19.40
2022-08-18T05:00:35.996Z,19.42
2022-08-18T05:01:36.028Z,19.43
2022-08-18T05:02:35.919Z,19.43
2022-08-18T05:03:35.922Z,19.42
2022-08-18T05:04:36.888Z,19.43
2022-08-18T05:05:35.932Z,19.45
2022-08-18T05:06:35.860Z,19.46
2022-08-18T05:07:35.864Z,19.47
2022-08-18T05:08:35.837Z,19.46
2022-08-18T05:09:41.430Z,19.46
2022-08-18T05:10:36.904Z,19.47
2022-08-18T05:11:35.814Z,19.46
2022-08-18T05:12:35.804Z,19.46
2022-08-18T05:13:35.785Z,19.45
2022-08-18T05:14:35.776Z,19.47
2022-08-18T05:15:52.927Z,19.49
2022-08-18T05:16:48.625Z,19.50
2022-08-18T05:17:36.732Z,19.53
2022-08-18T05:18:35.728Z,19.52
2022-08-18T05:19:35.699Z,19.53
2022-08-18T05:20:36.690Z,19.57
2022-08-18T05:21:35.689Z,19.58
2022-08-18T05:22:35.658Z,19.58
2022-08-18T05:23:35.646Z,19.60
2022-08-18T05:24:37.071Z,19.57
2022-08-18T05:25:35.651Z,19.57
2022-08-18T05:26:35.616Z,19.57
2022-08-18T05:27:35.606Z,19.55
2022-08-18T05:28:35.643Z,19.57
2022-08-18T05:29:35.591Z,19.60
2022-08-18T05:30:35.571Z,19.58
2022-08-18T05:31:35.554Z,19.57
2022-08-18T05:32:47.041Z,19.58
2022-08-18T05:33:36.518Z,19.60
2022-08-18T05:34:35.533Z,19.61
2022-08-18T05:35:35.528Z,19.61
2022-08-18T05:36:35.489Z,19.64
2022-08-18T05:37:35.701Z,19.64
2022-08-18T05:38:35.462Z,19.65
2022-08-18T05:39:35.498Z,19.64
2022-08-18T05:40:35.445Z,19.65
2022-08-18T05:41:35.412Z,19.67
2022-08-18T05:42:35.427Z,19.68
2022-08-18T05:43:35.442Z,19.70
2022-08-18T05:44:36.368Z,19.71
2022-08-18T05:45:35.410Z,19.71
2022-08-18T05:46:35.348Z,19.72
2022-08-18T05:47:35.349Z,19.75
2022-08-18T05:48:38.596Z,19.76
2022-08-18T05:49:36.324Z,19.76
2022-08-18T05:50:35.302Z,19.76
2022-08-18T05:51:35.287Z,19.76
2022-08-18T05:52:35.294Z,19.79
2022-08-18T05:53:35.267Z,19.79
2022-08-18T05:54:35.244Z,19.79
2022-08-18T05:55:35.273Z,19.79
2022-08-18T05:56:35.229Z,19.79
2022-08-18T05:57:35.226Z,19.79
2022-08-18T05:58:35.189Z,19.79
2022-08-18T05:59:35.213Z,19.82
2022-08-18T06:00:35.190Z,19.83
2022-08-18T06:01:35.158Z,19.86
2022-08-18T06:02:35.186Z,19.85
2022-08-18T06:03:45.208Z,19.86
2022-08-18T06:04:36.141Z,19.89
2022-08-18T06:05:35.143Z,19.90
2022-08-18T06:06:35.140Z,19.94
2022-08-18T06:07:35.075Z,19.97
2022-08-18T06:08:35.078Z,19.97
2022-08-18T06:09:35.073Z,19.97
2022-08-18T06:10:35.072Z,19.95
2022-08-18T06:11:35.042Z,19.95
2022-08-18T06:12:37.285Z,19.94
2022-08-18T06:13:35.015Z,19.92
2022-08-18T06:14:34.997Z,19.92
2022-08-18T06:15:35.000Z,19.94
2022-08-18T06:16:34.978Z,19.94
2022-08-18T06:17:34.946Z,19.97
2022-08-18T06:18:34.967Z,19.97
2022-08-18T06:19:34.940Z,20.00
2022-08-18T06:20:34.929Z,19.97
2022-08-18T06:21:39.015Z,19.97
2022-08-18T06:22:34.898Z,19.95
2022-08-18T06:23:34.878Z,19.97
2022-08-18T06:24:34.867Z,19.97
2022-08-18T06:25:34.862Z,20.00
2022-08-18T06:26:34.836Z,20.01
2022-08-18T06:27:34.838Z,20.02
2022-08-18T06:28:34.815Z,20.02
2022-08-18T06:29:34.796Z,20.04
2022-08-18T06:30:34.806Z,20.04
2022-08-18T06:31:34.798Z,20.02
2022-08-18T06:32:34.766Z,20.05
2022-08-18T06:33:34.752Z,20.05
2022-08-18T06:34:34.769Z,20.05
2022-08-18T06:35:34.742Z,20.02
2022-08-18T06:36:34.739Z,20.01
2022-08-18T06:37:34.702Z,20.01
2022-08-18T06:38:34.667Z,20.01
2022-08-18T06:39:34.746Z,19.98
2022-08-18T06:40:34.679Z,20.01
2022-08-18T06:41:41.627Z,20.01
2022-08-18T06:42:39.927Z,20.02
2022-08-18T06:43:34.649Z,20.02
2022-08-18T06:44:34.595Z,20.01
2022-08-18T06:45:39.890Z,20.01
2022-08-18T06:46:35.574Z,20.02
2022-08-18T06:47:34.578Z,20.02
2022-08-18T06:48:34.551Z,20.01
2022-08-18T06:49:34.559Z,20.02
2022-08-18T06:50:34.545Z,20.02
2022-08-18T06:51:40.144Z,20.01
2022-08-18T06:52:35.524Z,19.98
2022-08-18T06:53:34.493Z,19.97
2022-08-18T06:54:34.486Z,19.97
2022-08-18T06:55:34.572Z,19.97
2022-08-18T06:56:34.458Z,19.97
2022-08-18T06:57:34.449Z,19.98
2022-08-18T06:58:34.438Z,20.00
2022-08-18T06:59:34.418Z,20.02
2022-08-18T07:00:34.504Z,20.01
2022-08-18T07:01:34.490Z,20.04
2022-08-18T07:02:35.714Z,20.02
2022-08-18T07:03:34.385Z,20.04
2022-08-18T07:04:34.723Z,20.05
2022-08-18T07:05:34.335Z,20.05
2022-08-18T07:06:34.312Z,20.07
2022-08-18T07:07:39.573Z,20.05
2022-08-18T07:08:35.861Z,20.05
2022-08-18T07:09:34.287Z,20.08
2022-08-18T07:10:34.310Z,20.08
2022-08-18T07:11:34.267Z,20.12
2022-08-18T07:12:34.231Z,20.10
2022-08-18T07:13:34.237Z,20.08
2022-08-18T07:14:34.205Z,20.12
2022-08-18T07:15:34.213Z,20.10
2022-08-18T07:16:57.082Z,20.08
2022-08-18T07:17:42.330Z,20.08
2022-08-18T07:18:35.163Z,20.08
2022-08-18T07:19:34.156Z,20.07
2022-08-18T07:20:34.172Z,20.08
2022-08-18T07:21:34.148Z,20.08
2022-08-18T07:22:39.428Z,20.07
2022-08-18T07:23:35.122Z,20.07
2022-08-18T07:24:34.082Z,20.07
2022-08-18T07:25:34.092Z,20.07
2022-08-18T07:27:32.183Z,20.05
2022-08-18T07:28:30.413Z,20.08
2022-08-18T07:29:30.393Z,20.08
2022-08-18T07:30:30.389Z,20.10
2022-08-18T07:31:30.342Z,20.10
2022-08-18T07:32:30.333Z,20.10
2022-08-18T07:33:30.345Z,20.08
2022-08-18T07:34:30.312Z,20.12
2022-08-18T07:35:30.323Z,20.12
2022-08-18T07:36:30.287Z,20.15
2022-08-18T07:37:30.287Z,20.16
2022-08-18T07:38:45.611Z,20.17
2022-08-18T07:39:31.323Z,20.20
2022-08-18T07:40:30.253Z,20.23
2022-08-18T07:41:30.219Z,20.23
2022-08-18T07:42:37.137Z,20.25
2022-08-18T07:43:31.213Z,20.23
2022-08-18T07:44:30.180Z,20.26
2022-08-18T07:45:30.207Z,20.25
2022-08-18T07:46:30.181Z,20.26
2022-08-18T07:47:30.141Z,20.26
2022-08-18T07:48:39.625Z,20.25
2022-08-18T07:49:31.135Z,20.23
2022-08-18T07:50:57.537Z,20.25
2022-08-18T07:51:31.202Z,20.23
2022-08-18T07:52:44.493Z,20.23
2022-08-18T07:53:31.086Z,20.23
2022-08-18T07:54:49.386Z,20.25
2022-08-18T07:55:31.051Z,20.26
2022-08-18T07:56:30.037Z,20.27
2022-08-18T07:57:30.035Z,20.30
2022-08-18T07:58:30.015Z,20.26
2022-08-18T07:59:30.004Z,20.25
2022-08-18T08:01:33.723Z,20.30
2022-08-18T08:02:29.974Z,20.26
2022-08-18T08:03:29.944Z,20.27
2022-08-18T08:04:29.936Z,20.30
2022-08-18T08:05:29.964Z,20.31
2022-08-18T08:06:29.891Z,20.31
2022-08-18T08:07:29.911Z,20.34
2022-08-18T08:08:29.886Z,20.33
2022-08-18T08:09:29.871Z,20.33
2022-08-18T08:10:29.861Z,20.35
2022-08-18T08:11:29.843Z,20.35
2022-08-18T08:12:29.821Z,20.37
2022-08-18T08:13:53.336Z,20.40
2022-08-18T08:14:30.801Z,20.44
2022-08-18T08:15:29.790Z,20.42
2022-08-18T08:16:29.775Z,20.42
2022-08-18T08:17:29.772Z,20.44
2022-08-18T08:18:29.750Z,20.48
2022-08-18T08:19:56.617Z,20.50
2022-08-18T08:20:32.699Z,20.51
2022-08-18T08:21:29.719Z,20.54
2022-08-18T08:22:29.692Z,20.56
2022-08-18T08:23:29.680Z,20.60
2022-08-18T08:24:29.661Z,20.61
2022-08-18T08:26:30.629Z,20.64
2022-08-18T08:27:29.633Z,20.64
2022-08-18T08:28:29.622Z,20.61
2022-08-18T08:29:29.598Z,20.58
2022-08-18T08:30:29.599Z,20.60
2022-08-18T08:31:37.982Z,20.60
2022-08-18T08:32:30.574Z,20.61
2022-08-18T08:33:29.562Z,20.63
2022-08-18T08:34:29.529Z,20.64
2022-08-18T08:35:49.558Z,20.63
2022-08-18T08:36:30.499Z,20.61
2022-08-18T08:37:29.523Z,20.57
2022-08-18T08:38:42.141Z,20.56
2022-08-18T08:39:30.483Z,20.58
2022-08-18T08:40:29.469Z,20.60
2022-08-18T08:41:29.454Z,20.61
2022-08-18T08:42:33.650Z,20.61
2022-08-18T08:43:30.424Z,20.63
2022-08-18T08:44:29.413Z,20.64
2022-08-18T08:45:29.404Z,20.66
2022-08-18T08:46:29.403Z,20.71
2022-08-18T08:47:29.359Z,20.72
2022-08-18T08:48:29.368Z,20.75
2022-08-18T08:49:29.363Z,20.75
2022-08-18T08:50:29.339Z,20.75
2022-08-18T08:51:30.147Z,20.73
2022-08-18T08:52:29.312Z,20.75
2022-08-18T08:53:29.349Z,20.73
2022-08-18T08:54:29.298Z,20.75
2022-08-18T08:55:29.268Z,20.75
2022-08-18T08:56:29.280Z,20.73
2022-08-18T08:57:29.242Z,20.76
2022-08-18T08:58:29.228Z,20.78
2022-08-18T08:59:29.218Z,20.78
2022-08-18T09:00:29.249Z,20.81
2022-08-18T09:01:29.350Z,20.82
2022-08-18T09:02:47.306Z,20.81
2022-08-18T09:03:30.983Z,20.82
2022-08-18T09:04:29.165Z,20.82
2022-08-18T09:05:29.161Z,20.82
2022-08-18T09:06:29.142Z,20.83
2022-08-18T09:07:29.106Z,20.87
2022-08-18T09:08:30.111Z,20.87
2022-08-18T09:09:29.089Z,20.83
2022-08-18T09:10:29.098Z,20.85
2022-08-18T09:11:29.073Z,20.90
2022-08-18T09:12:29.061Z,20.90
2022-08-18T09:13:29.471Z,20.94
2022-08-18T09:14:29.020Z,20.98
2022-08-18T09:15:29.091Z,21.01
2022-08-18T09:16:29.028Z,21.06
2022-08-18T09:17:34.349Z,21.11
2022-08-18T09:18:29.981Z,21.13
2022-08-18T09:19:28.963Z,21.13
2022-08-18T09:20:28.974Z,21.13
2022-08-18T09:21:28.943Z,21.13
2022-08-18T09:22:28.917Z,21.16
2022-08-18T09:23:28.912Z,21.19
2022-08-18T09:24:28.896Z,21.21
2022-08-18T09:25:28.916Z,21.24
2022-08-18T09:26:28.884Z,21.28
2022-08-18T09:27:28.872Z,21.31
2022-08-18T09:28:28.867Z,21.34
2022-08-18T09:29:28.853Z,21.36
2022-08-18T09:30:28.863Z,21.37
2022-08-18T09:31:31.669Z,21.40
2022-08-18T09:32:28.799Z,21.45
2022-08-18T09:33:28.791Z,21.51
2022-08-18T09:34:28.786Z,21.53
2022-08-18T09:35:28.785Z,21.56
2022-08-18T09:36:28.738Z,21.59
2022-08-18T09:37:28.728Z,21.64
2022-08-18T09:38:28.706Z,21.70
2022-08-18T09:39:28.732Z,21.70
2022-08-18T09:40:51.329Z,21.74
2022-08-18T09:41:31.291Z,21.74
2022-08-18T09:42:30.109Z,21.73
2022-08-18T09:43:28.987Z,21.74
2022-08-18T09:44:28.638Z,21.77
2022-08-18T09:45:33.032Z,21.83
2022-08-18T09:46:28.631Z,21.90
2022-08-18T09:47:30.297Z,21.93
2022-08-18T09:48:28.687Z,21.98
2022-08-18T09:49:28.579Z,22.04
2022-08-18T09:50:28.602Z,22.08
2022-08-18T09:51:28.538Z,22.12
2022-08-18T09:52:28.537Z,22.15
2022-08-18T09:53:28.529Z,22.21
2022-08-18T09:54:28.529Z,22.29
2022-08-18T09:55:28.948Z,22.35
2022-08-18T09:56:28.844Z,22.35
2022-08-18T09:57:28.488Z,22.36
2022-08-18T09:58:28.480Z,22.39
2022-08-18T09:59:28.450Z,22.44
2022-08-18T10:00:28.543Z,22.38
2022-08-18T10:01:28.460Z,22.41
2022-08-18T10:02:28.644Z,22.39
2022-08-18T10:03:31.099Z,22.35
2022-08-18T10:05:29.399Z,22.45
2022-08-18T10:06:28.380Z,22.57
2022-08-18T10:07:28.349Z,22.66
2022-08-18T10:08:28.365Z,22.75
2022-08-18T10:11:00.877Z,22.84
2022-08-18T10:11:29.304Z,22.88
2022-08-18T10:12:28.277Z,22.94
2022-08-18T10:13:28.271Z,22.91
2022-08-18T10:14:28.279Z,22.86
2022-08-18T10:15:33.965Z,22.91
2022-08-18T10:16:31.946Z,22.96
2022-08-18T10:17:29.205Z,23.03
2022-08-18T10:18:28.212Z,23.07
2022-08-18T10:19:28.236Z,23.16
2022-08-18T10:20:29.196Z,23.22
2022-08-18T10:21:31.567Z,23.26
2022-08-18T10:22:35.271Z,23.26
2022-08-18T10:23:29.136Z,23.31
2022-08-18T10:24:35.831Z,23.38
2022-08-18T10:25:29.129Z,23.38
2022-08-18T10:26:28.097Z,23.34
2022-08-18T10:27:28.098Z,23.34
2022-08-18T10:28:28.079Z,23.34
2022-08-18T10:29:28.159Z,23.29
2022-08-18T10:30:30.375Z,23.25
2022-08-18T10:31:29.033Z,23.23
2022-08-18T10:32:28.039Z,23.21
2022-08-18T10:33:28.007Z,23.18
2022-08-18T10:34:28.008Z,23.16
2022-08-18T10:35:29.274Z,23.15
2022-08-18T10:36:27.985Z,23.12
2022-08-18T10:37:28.363Z,23.11
2022-08-18T10:38:30.743Z,23.09
2022-08-18T10:39:27.986Z,23.07
2022-08-18T10:40:28.137Z,23.09
2022-08-18T10:41:30.730Z,23.12
2022-08-18T10:42:30.961Z,23.16
2022-08-18T10:45:28.856Z,23.09
2022-08-18T10:46:31.943Z,23.04
2022-08-18T10:48:28.802Z,23.04
2022-08-18T10:49:27.804Z,23.03
2022-08-18T10:50:27.808Z,23.07
2022-08-18T10:51:27.765Z,23.12
2022-08-18T10:52:27.760Z,23.15
2022-08-18T10:53:44.529Z,23.11
2022-08-18T10:54:29.274Z,23.14
2022-08-18T10:55:47.701Z,23.19
2022-08-18T10:56:28.723Z,23.25
2022-08-18T10:57:27.685Z,23.31
2022-08-18T10:58:28.083Z,23.34
2022-08-18T11:00:28.670Z,23.26
2022-08-18T11:01:27.656Z,23.31
2022-08-18T11:02:28.640Z,23.37
2022-08-18T11:03:51.803Z,23.45
2022-08-18T11:04:33.977Z,23.50
2022-08-18T11:05:28.618Z,23.52
2022-08-18T11:06:27.585Z,23.54
2022-08-18T11:07:28.602Z,23.57
2022-08-18T11:08:27.547Z,23.60
2022-08-18T11:09:27.547Z,23.60
2022-08-18T11:10:30.118Z,23.62
2022-08-18T11:11:37.659Z,23.67
2022-08-18T11:12:28.510Z,23.68
2022-08-18T11:13:27.486Z,23.69
2022-08-18T11:14:27.462Z,23.69
2022-08-18T11:15:27.565Z,23.67
2022-08-18T11:16:28.451Z,23.67
2022-08-18T11:17:27.437Z,23.64
2022-08-18T11:18:27.404Z,23.53
2022-08-18T11:19:27.396Z,23.52
2022-08-18T11:20:27.404Z,23.50
2022-08-18T11:21:27.373Z,23.50
2022-08-18T11:22:32.433Z,23.52
2022-08-18T11:23:28.357Z,23.52
2022-08-18T11:24:27.350Z,23.54
2022-08-18T11:25:28.009Z,23.57
2022-08-18T11:26:27.320Z,23.60
2022-08-18T11:27:27.298Z,23.56
2022-08-18T11:28:30.154Z,23.50
2022-08-18T11:29:27.254Z,23.47
2022-08-18T11:30:30.633Z,23.39
2022-08-18T11:31:27.248Z,23.37
2022-08-18T11:32:27.239Z,23.38
2022-08-18T11:33:27.227Z,23.37
2022-08-18T11:34:27.217Z,23.31
2022-08-18T11:35:27.675Z,23.34
2022-08-18T11:36:27.187Z,23.35
2022-08-18T11:37:27.229Z,23.35
2022-08-18T11:38:27.168Z,23.38
2022-08-18T11:41:09.118Z,23.42
2022-08-18T11:42:28.124Z,23.44
2022-08-18T11:43:27.090Z,23.53
2022-08-18T11:44:27.067Z,23.60
2022-08-18T11:45:27.075Z,23.69
2022-08-18T11:47:30.096Z,23.75
2022-08-18T11:48:39.093Z,23.86
2022-08-18T11:49:28.014Z,23.92
2022-08-18T11:50:27.006Z,24.00
2022-08-18T11:51:27.144Z,24.09
2022-08-18T11:52:30.815Z,24.15
2022-08-18T11:53:27.954Z,24.21
2022-08-18T11:54:26.959Z,24.16
2022-08-18T11:55:26.958Z,24.15
2022-08-18T11:56:30.809Z,24.18
2022-08-18T11:57:26.915Z,24.21
2022-08-18T11:58:26.895Z,24.26
2022-08-18T12:00:27.868Z,24.21
2022-08-18T12:01:26.848Z,24.24
2022-08-18T12:02:27.855Z,24.19
2022-08-18T12:03:28.498Z,24.19
2022-08-18T12:04:26.808Z,24.19
2022-08-18T12:05:26.835Z,24.23
2022-08-18T12:06:27.828Z,24.27
2022-08-18T12:07:26.772Z,24.31
2022-08-18T12:08:51.023Z,24.27
2022-08-18T12:10:05.109Z,24.23
2022-08-18T12:11:28.890Z,24.09
2022-08-18T12:12:28.455Z,23.94
2022-08-18T12:13:26.737Z,23.90
2022-08-18T12:14:30.727Z,23.86
2022-08-18T12:15:29.614Z,23.86
2022-08-18T12:16:27.654Z,23.87
2022-08-18T12:17:26.657Z,23.92
2022-08-18T12:18:28.728Z,23.94
2022-08-18T12:19:26.941Z,23.97
2022-08-18T12:20:26.626Z,23.99
2022-08-18T12:21:26.582Z,23.99
2022-08-18T12:22:26.574Z,23.99
2022-08-18T12:23:26.565Z,24.05
2022-08-18T12:24:28.737Z,24.09
2022-08-18T12:25:26.546Z,24.12
2022-08-18T12:26:38.241Z,24.09
2022-08-18T12:27:31.922Z,24.14
2022-08-18T12:28:28.435Z,24.09
2022-08-18T12:29:33.083Z,24.06
2022-08-18T12:30:27.495Z,24.08
2022-08-18T12:31:29.075Z,24.12
2022-08-18T12:33:34.597Z,24.21
2022-08-18T12:34:27.460Z,24.24
2022-08-18T12:35:26.422Z,24.27
2022-08-18T12:36:29.071Z,24.29
2022-08-18T12:37:58.479Z,24.34
2022-08-18T12:38:27.362Z,24.41
2022-08-18T12:39:26.357Z,24.44
2022-08-18T12:40:26.621Z,24.48
2022-08-18T12:41:26.336Z,24.52
2022-08-18T12:42:26.316Z,24.56
2022-08-18T12:43:26.321Z,24.63
2022-08-18T12:44:27.501Z,24.67
2022-08-18T12:45:27.111Z,24.77
2022-08-18T12:46:26.289Z,24.84
2022-08-18T12:47:26.265Z,24.89
2022-08-18T12:48:27.234Z,24.90
2022-08-18T12:49:26.552Z,24.92
2022-08-18T12:50:31.834Z,24.90
2022-08-18T12:51:30.479Z,24.90
2022-08-18T12:52:26.201Z,24.92
2022-08-18T12:53:30.475Z,24.93
2022-08-18T12:54:27.168Z,24.97
2022-08-18T12:55:26.179Z,25.02
2022-08-18T12:56:26.173Z,25.09
2022-08-18T12:57:33.506Z,25.14
2022-08-18T12:58:27.125Z,25.19
2022-08-18T12:59:26.104Z,25.22
2022-08-18T13:00:28.936Z,25.23
2022-08-18T13:01:26.705Z,25.23
2022-08-18T13:02:26.071Z,25.14
2022-08-18T13:04:27.270Z,25.08
2022-08-18T13:05:27.578Z,25.08
2022-08-18T13:06:27.626Z,25.01
2022-08-18T13:07:26.015Z,24.93
2022-08-18T13:08:27.756Z,24.92
2022-08-18T13:09:34.759Z,24.93